sensor_id;sensor_type;location;lat;lon;timestamp;P1;durP1;ratioP1;P2;durP2;ratioP2
5650;SDS011;40241;52.684;9.758;2024-01-10T00:02:13;7.13;;;3.90;;
5650;SDS011;40241;52.684;9.758;2024-01-10T00:04:39;6.47;;;3.70;;
5650;SDS011;40241;52.684;9.758;2024-01-10T00:07:04;4.97;;;3.60;;
5650;SDS011;40241;52.684;9.758;2024-01-10T00:09:30;8.17;;;5.00;;
5650;SDS011;40241;52.684;9.758;2024-01-10T00:11:55;8.97;;;4.90;;
5650;SDS011;40241;52.684;9.758;2024-01-10T00:14:20;5.73;;;4.50;;
5650;SDS011;40241;52.684;9.758;2024-01-10T00:16:46;7.63;;;4.70;;
5650;SDS011;40241;52.684;9.758;2024-01-10T00:19:11;7.27;;;4.27;;
5650;SDS011;40241;52.684;9.758;2024-01-10T00:21:36;6.30;;;4.30;;
5650;SDS011;40241;52.684;9.758;2024-01-10T00:24:02;6.73;;;4.67;;
5650;SDS011;40241;52.684;9.758;2024-01-10T00:26:27;9.70;;;6.57;;
5650;SDS011;40241;52.684;9.758;2024-01-10T00:28:52;7.93;;;5.20;;
5650;SDS011;40241;52.684;9.758;2024-01-10T00:31:18;8.20;;;5.23;;
5650;SDS011;40241;52.684;9.758;2024-01-10T00:33:43;7.67;;;3.87;;
5650;SDS011;40241;52.684;9.758;2024-01-10T00:36:08;5.70;;;3.90;;
5650;SDS011;40241;52.684;9.758;2024-01-10T00:38:33;5.60;;;3.93;;
5650;SDS011;40241;52.684;9.758;2024-01-10T00:40:59;9.23;;;3.73;;
5650;SDS011;40241;52.684;9.758;2024-01-10T00:43:24;6.73;;;3.83;;
5650;SDS011;40241;52.684;9.758;2024-01-10T00:45:50;4.50;;;3.57;;
5650;SDS011;40241;52.684;9.758;2024-01-10T00:48:15;4.37;;;3.07;;
5650;SDS011;40241;52.684;9.758;2024-01-10T00:50:42;5.97;;;3.40;;
5650;SDS011;40241;52.684;9.758;2024-01-10T00:53:09;5.17;;;3.20;;
5650;SDS011;40241;52.684;9.758;2024-01-10T00:55:34;5.50;;;3.50;;
5650;SDS011;40241;52.684;9.758;2024-01-10T00:58:00;4.47;;;3.27;;
5650;SDS011;40241;52.684;9.758;2024-01-10T01:00:25;6.10;;;3.17;;
5650;SDS011;40241;52.684;9.758;2024-01-10T01:02:51;4.17;;;3.60;;
5650;SDS011;40241;52.684;9.758;2024-01-10T01:05:16;3.67;;;3.27;;
5650;SDS011;40241;52.684;9.758;2024-01-10T01:07:42;5.20;;;3.60;;
5650;SDS011;40241;52.684;9.758;2024-01-10T01:10:08;5.20;;;3.67;;
5650;SDS011;40241;52.684;9.758;2024-01-10T01:12:36;4.93;;;4.00;;
5650;SDS011;40241;52.684;9.758;2024-01-10T01:15:02;3.60;;;2.93;;
5650;SDS011;40241;52.684;9.758;2024-01-10T01:17:28;5.10;;;2.90;;
5650;SDS011;40241;52.684;9.758;2024-01-10T01:19:54;4.87;;;2.57;;
5650;SDS011;40241;52.684;9.758;2024-01-10T01:22:19;4.23;;;3.50;;
5650;SDS011;40241;52.684;9.758;2024-01-10T01:24:44;4.03;;;3.17;;
5650;SDS011;40241;52.684;9.758;2024-01-10T01:27:10;3.60;;;2.77;;
5650;SDS011;40241;52.684;9.758;2024-01-10T01:29:35;5.40;;;3.03;;
5650;SDS011;40241;52.684;9.758;2024-01-10T01:32:00;6.80;;;3.47;;
5650;SDS011;40241;52.684;9.758;2024-01-10T01:34:25;3.80;;;2.80;;
5650;SDS011;40241;52.684;9.758;2024-01-10T01:36:51;3.90;;;2.80;;
5650;SDS011;40241;52.684;9.758;2024-01-10T01:39:17;4.50;;;3.20;;
5650;SDS011;40241;52.684;9.758;2024-01-10T01:41:43;6.20;;;2.87;;
5650;SDS011;40241;52.684;9.758;2024-01-10T01:44:08;5.10;;;3.10;;
5650;SDS011;40241;52.684;9.758;2024-01-10T01:46:33;4.00;;;3.20;;
5650;SDS011;40241;52.684;9.758;2024-01-10T01:48:59;4.07;;;2.87;;
5650;SDS011;40241;52.684;9.758;2024-01-10T01:51:25;2.83;;;2.43;;
5650;SDS011;40241;52.684;9.758;2024-01-10T01:53:53;4.93;;;2.97;;
5650;SDS011;40241;52.684;9.758;2024-01-10T01:56:20;5.23;;;2.70;;
5650;SDS011;40241;52.684;9.758;2024-01-10T01:58:46;5.60;;;3.03;;
5650;SDS011;40241;52.684;9.758;2024-01-10T02:01:13;4.33;;;3.00;;
5650;SDS011;40241;52.684;9.758;2024-01-10T02:03:38;4.40;;;3.20;;
5650;SDS011;40241;52.684;9.758;2024-01-10T02:06:04;6.37;;;3.23;;
5650;SDS011;40241;52.684;9.758;2024-01-10T02:08:31;5.63;;;3.20;;
5650;SDS011;40241;52.684;9.758;2024-01-10T02:10:58;3.47;;;2.77;;
5650;SDS011;40241;52.684;9.758;2024-01-10T02:13:24;8.50;;;3.53;;
5650;SDS011;40241;52.684;9.758;2024-01-10T02:15:49;3.63;;;2.90;;
5650;SDS011;40241;52.684;9.758;2024-01-10T02:18:15;3.97;;;3.10;;
5650;SDS011;40241;52.684;9.758;2024-01-10T02:20:42;4.43;;;2.67;;
5650;SDS011;40241;52.684;9.758;2024-01-10T02:23:11;4.70;;;2.80;;
5650;SDS011;40241;52.684;9.758;2024-01-10T02:25:37;6.23;;;2.73;;
5650;SDS011;40241;52.684;9.758;2024-01-10T02:28:03;3.97;;;2.80;;
5650;SDS011;40241;52.684;9.758;2024-01-10T02:30:29;4.03;;;2.33;;
5650;SDS011;40241;52.684;9.758;2024-01-10T02:32:55;4.33;;;2.53;;
5650;SDS011;40241;52.684;9.758;2024-01-10T02:35:20;5.53;;;2.60;;
5650;SDS011;40241;52.684;9.758;2024-01-10T02:37:46;4.30;;;2.90;;
5650;SDS011;40241;52.684;9.758;2024-01-10T02:40:11;5.50;;;2.43;;
5650;SDS011;40241;52.684;9.758;2024-01-10T02:42:37;4.07;;;2.93;;
5650;SDS011;40241;52.684;9.758;2024-01-10T02:45:03;7.20;;;2.67;;
5650;SDS011;40241;52.684;9.758;2024-01-10T02:47:29;4.63;;;2.80;;
5650;SDS011;40241;52.684;9.758;2024-01-10T02:49:54;5.90;;;3.33;;
5650;SDS011;40241;52.684;9.758;2024-01-10T02:52:19;3.73;;;2.87;;
5650;SDS011;40241;52.684;9.758;2024-01-10T02:54:45;3.90;;;2.60;;
5650;SDS011;40241;52.684;9.758;2024-01-10T02:57:11;4.33;;;2.43;;
5650;SDS011;40241;52.684;9.758;2024-01-10T02:59:36;4.33;;;3.23;;
5650;SDS011;40241;52.684;9.758;2024-01-10T03:02:01;5.20;;;3.63;;
5650;SDS011;40241;52.684;9.758;2024-01-10T03:04:27;5.73;;;4.20;;
5650;SDS011;40241;52.684;9.758;2024-01-10T03:06:52;6.40;;;3.43;;
5650;SDS011;40241;52.684;9.758;2024-01-10T03:09:17;5.00;;;3.13;;
5650;SDS011;40241;52.684;9.758;2024-01-10T03:11:42;5.50;;;3.60;;
5650;SDS011;40241;52.684;9.758;2024-01-10T03:14:08;5.50;;;3.10;;
5650;SDS011;40241;52.684;9.758;2024-01-10T03:16:34;5.30;;;3.60;;
5650;SDS011;40241;52.684;9.758;2024-01-10T03:19:00;6.20;;;3.03;;
5650;SDS011;40241;52.684;9.758;2024-01-10T03:21:25;3.27;;;2.67;;
5650;SDS011;40241;52.684;9.758;2024-01-10T03:23:58;4.57;;;3.07;;
5650;SDS011;40241;52.684;9.758;2024-01-10T03:26:25;3.50;;;2.80;;
5650;SDS011;40241;52.684;9.758;2024-01-10T03:28:51;3.83;;;2.73;;
5650;SDS011;40241;52.684;9.758;2024-01-10T03:31:16;8.57;;;3.37;;
5650;SDS011;40241;52.684;9.758;2024-01-10T03:33:42;3.30;;;2.57;;
5650;SDS011;40241;52.684;9.758;2024-01-10T03:36:12;3.90;;;3.40;;
5650;SDS011;40241;52.684;9.758;2024-01-10T03:38:39;3.87;;;3.33;;
5650;SDS011;40241;52.684;9.758;2024-01-10T03:41:04;4.73;;;3.40;;
5650;SDS011;40241;52.684;9.758;2024-01-10T03:43:29;4.77;;;2.63;;
5650;SDS011;40241;52.684;9.758;2024-01-10T03:45:55;10.20;;;3.63;;
5650;SDS011;40241;52.684;9.758;2024-01-10T03:48:21;5.87;;;3.50;;
5650;SDS011;40241;52.684;9.758;2024-01-10T03:50:47;4.63;;;3.20;;
5650;SDS011;40241;52.684;9.758;2024-01-10T03:53:12;4.47;;;3.20;;
5650;SDS011;40241;52.684;9.758;2024-01-10T03:55:37;4.10;;;2.87;;
5650;SDS011;40241;52.684;9.758;2024-01-10T03:58:04;5.47;;;3.30;;
5650;SDS011;40241;52.684;9.758;2024-01-10T04:00:29;5.40;;;2.70;;
5650;SDS011;40241;52.684;9.758;2024-01-10T04:02:55;8.00;;;3.70;;
5650;SDS011;40241;52.684;9.758;2024-01-10T04:05:20;6.10;;;3.27;;
5650;SDS011;40241;52.684;9.758;2024-01-10T04:07:46;4.67;;;2.63;;
5650;SDS011;40241;52.684;9.758;2024-01-10T04:10:12;5.50;;;3.10;;
5650;SDS011;40241;52.684;9.758;2024-01-10T04:12:45;3.10;;;2.30;;
5650;SDS011;40241;52.684;9.758;2024-01-10T04:15:11;4.27;;;2.60;;
5650;SDS011;40241;52.684;9.758;2024-01-10T04:17:37;3.83;;;3.40;;
5650;SDS011;40241;52.684;9.758;2024-01-10T04:20:03;6.20;;;3.43;;
5650;SDS011;40241;52.684;9.758;2024-01-10T04:22:29;7.50;;;3.50;;
5650;SDS011;40241;52.684;9.758;2024-01-10T04:24:58;5.23;;;2.63;;
5650;SDS011;40241;52.684;9.758;2024-01-10T04:27:24;3.10;;;2.73;;
5650;SDS011;40241;52.684;9.758;2024-01-10T04:29:50;8.10;;;3.60;;
5650;SDS011;40241;52.684;9.758;2024-01-10T04:32:15;4.83;;;3.10;;
5650;SDS011;40241;52.684;9.758;2024-01-10T04:34:41;2.70;;;2.27;;
5650;SDS011;40241;52.684;9.758;2024-01-10T04:37:06;6.07;;;2.40;;
5650;SDS011;40241;52.684;9.758;2024-01-10T04:39:32;3.50;;;2.67;;
5650;SDS011;40241;52.684;9.758;2024-01-10T04:41:58;9.80;;;2.80;;
5650;SDS011;40241;52.684;9.758;2024-01-10T04:44:24;2.97;;;2.70;;
5650;SDS011;40241;52.684;9.758;2024-01-10T04:46:49;3.53;;;3.23;;
5650;SDS011;40241;52.684;9.758;2024-01-10T04:49:14;4.23;;;3.23;;
5650;SDS011;40241;52.684;9.758;2024-01-10T04:51:39;7.70;;;4.40;;
5650;SDS011;40241;52.684;9.758;2024-01-10T04:54:05;6.83;;;4.33;;
5650;SDS011;40241;52.684;9.758;2024-01-10T04:56:30;8.00;;;4.67;;
5650;SDS011;40241;52.684;9.758;2024-01-10T04:58:56;5.90;;;4.70;;
5650;SDS011;40241;52.684;9.758;2024-01-10T05:01:21;6.70;;;4.00;;
5650;SDS011;40241;52.684;9.758;2024-01-10T05:03:46;9.10;;;5.67;;
5650;SDS011;40241;52.684;9.758;2024-01-10T05:06:12;10.60;;;6.30;;
5650;SDS011;40241;52.684;9.758;2024-01-10T05:08:37;5.97;;;4.47;;
5650;SDS011;40241;52.684;9.758;2024-01-10T05:11:02;7.80;;;5.03;;
5650;SDS011;40241;52.684;9.758;2024-01-10T05:13:28;7.80;;;4.90;;
5650;SDS011;40241;52.684;9.758;2024-01-10T05:15:54;5.50;;;4.40;;
5650;SDS011;40241;52.684;9.758;2024-01-10T05:18:20;6.03;;;3.93;;
5650;SDS011;40241;52.684;9.758;2024-01-10T05:20:46;5.17;;;3.70;;
5650;SDS011;40241;52.684;9.758;2024-01-10T05:23:11;5.07;;;3.60;;
5650;SDS011;40241;52.684;9.758;2024-01-10T05:25:36;5.90;;;4.10;;
5650;SDS011;40241;52.684;9.758;2024-01-10T05:28:02;5.23;;;3.63;;
5650;SDS011;40241;52.684;9.758;2024-01-10T05:30:27;4.13;;;3.13;;
5650;SDS011;40241;52.684;9.758;2024-01-10T05:32:53;4.93;;;3.77;;
5650;SDS011;40241;52.684;9.758;2024-01-10T05:35:18;4.73;;;3.43;;
5650;SDS011;40241;52.684;9.758;2024-01-10T05:37:43;4.07;;;3.13;;
5650;SDS011;40241;52.684;9.758;2024-01-10T05:40:09;5.83;;;2.70;;
5650;SDS011;40241;52.684;9.758;2024-01-10T05:42:34;3.77;;;3.27;;
5650;SDS011;40241;52.684;9.758;2024-01-10T05:45:00;4.33;;;3.10;;
5650;SDS011;40241;52.684;9.758;2024-01-10T05:47:27;6.10;;;3.40;;
5650;SDS011;40241;52.684;9.758;2024-01-10T05:49:53;4.30;;;3.40;;
5650;SDS011;40241;52.684;9.758;2024-01-10T05:52:18;6.73;;;4.23;;
5650;SDS011;40241;52.684;9.758;2024-01-10T05:54:44;5.73;;;4.00;;
5650;SDS011;40241;52.684;9.758;2024-01-10T05:57:10;5.70;;;3.63;;
5650;SDS011;40241;52.684;9.758;2024-01-10T05:59:37;7.00;;;3.53;;
5650;SDS011;40241;52.684;9.758;2024-01-10T06:02:03;3.53;;;2.90;;
5650;SDS011;40241;52.684;9.758;2024-01-10T06:04:28;4.30;;;3.20;;
5650;SDS011;40241;52.684;9.758;2024-01-10T06:06:59;9.10;;;3.70;;
5650;SDS011;40241;52.684;9.758;2024-01-10T06:09:25;3.67;;;3.00;;
5650;SDS011;40241;52.684;9.758;2024-01-10T06:11:50;4.07;;;3.40;;
5650;SDS011;40241;52.684;9.758;2024-01-10T06:14:16;4.00;;;3.10;;
5650;SDS011;40241;52.684;9.758;2024-01-10T06:16:42;4.03;;;3.07;;
5650;SDS011;40241;52.684;9.758;2024-01-10T06:19:09;5.27;;;3.70;;
5650;SDS011;40241;52.684;9.758;2024-01-10T06:21:35;3.30;;;3.00;;
5650;SDS011;40241;52.684;9.758;2024-01-10T06:24:00;6.80;;;3.63;;
5650;SDS011;40241;52.684;9.758;2024-01-10T06:26:26;4.77;;;3.60;;
5650;SDS011;40241;52.684;9.758;2024-01-10T06:28:51;4.77;;;3.40;;
5650;SDS011;40241;52.684;9.758;2024-01-10T06:31:16;6.27;;;3.80;;
5650;SDS011;40241;52.684;9.758;2024-01-10T06:33:42;4.33;;;3.00;;
5650;SDS011;40241;52.684;9.758;2024-01-10T06:36:07;4.97;;;3.50;;
5650;SDS011;40241;52.684;9.758;2024-01-10T06:38:32;5.90;;;3.63;;
5650;SDS011;40241;52.684;9.758;2024-01-10T06:40:58;24.03;;;3.93;;
5650;SDS011;40241;52.684;9.758;2024-01-10T06:43:23;6.77;;;4.30;;
5650;SDS011;40241;52.684;9.758;2024-01-10T06:45:49;7.00;;;4.20;;
5650;SDS011;40241;52.684;9.758;2024-01-10T06:48:14;6.97;;;3.87;;
5650;SDS011;40241;52.684;9.758;2024-01-10T06:50:40;5.90;;;3.73;;
5650;SDS011;40241;52.684;9.758;2024-01-10T06:53:05;6.23;;;3.80;;
5650;SDS011;40241;52.684;9.758;2024-01-10T06:55:31;5.97;;;4.00;;
5650;SDS011;40241;52.684;9.758;2024-01-10T06:57:56;7.90;;;4.10;;
5650;SDS011;40241;52.684;9.758;2024-01-10T07:00:21;5.07;;;3.40;;
5650;SDS011;40241;52.684;9.758;2024-01-10T07:02:47;7.20;;;3.70;;
5650;SDS011;40241;52.684;9.758;2024-01-10T07:05:13;8.10;;;4.47;;
5650;SDS011;40241;52.684;9.758;2024-01-10T07:07:39;6.70;;;4.50;;
5650;SDS011;40241;52.684;9.758;2024-01-10T07:10:05;8.40;;;5.07;;
5650;SDS011;40241;52.684;9.758;2024-01-10T07:12:31;9.47;;;4.70;;
5650;SDS011;40241;52.684;9.758;2024-01-10T07:14:57;8.70;;;4.77;;
5650;SDS011;40241;52.684;9.758;2024-01-10T07:17:22;9.60;;;5.43;;
5650;SDS011;40241;52.684;9.758;2024-01-10T07:19:48;10.63;;;5.33;;
5650;SDS011;40241;52.684;9.758;2024-01-10T07:22:13;9.77;;;4.50;;
5650;SDS011;40241;52.684;9.758;2024-01-10T07:24:39;13.17;;;5.90;;
5650;SDS011;40241;52.684;9.758;2024-01-10T07:27:04;11.80;;;6.23;;
5650;SDS011;40241;52.684;9.758;2024-01-10T07:29:31;12.23;;;6.17;;
5650;SDS011;40241;52.684;9.758;2024-01-10T07:31:56;11.37;;;5.67;;
5650;SDS011;40241;52.684;9.758;2024-01-10T07:34:22;8.10;;;5.23;;
5650;SDS011;40241;52.684;9.758;2024-01-10T07:36:47;9.30;;;4.80;;
5650;SDS011;40241;52.684;9.758;2024-01-10T07:39:12;8.73;;;4.50;;
5650;SDS011;40241;52.684;9.758;2024-01-10T07:41:43;7.10;;;4.17;;
5650;SDS011;40241;52.684;9.758;2024-01-10T07:44:09;8.30;;;4.73;;
5650;SDS011;40241;52.684;9.758;2024-01-10T07:46:34;9.47;;;5.20;;
5650;SDS011;40241;52.684;9.758;2024-01-10T07:49:02;11.77;;;6.17;;
5650;SDS011;40241;52.684;9.758;2024-01-10T07:51:28;9.37;;;5.20;;
5650;SDS011;40241;52.684;9.758;2024-01-10T07:53:54;8.87;;;5.10;;
5650;SDS011;40241;52.684;9.758;2024-01-10T07:56:20;9.37;;;5.43;;
5650;SDS011;40241;52.684;9.758;2024-01-10T07:58:45;12.00;;;5.97;;
5650;SDS011;40241;52.684;9.758;2024-01-10T08:01:10;8.63;;;5.23;;
5650;SDS011;40241;52.684;9.758;2024-01-10T08:03:36;8.73;;;5.20;;
5650;SDS011;40241;52.684;9.758;2024-01-10T08:06:01;8.80;;;4.80;;
5650;SDS011;40241;52.684;9.758;2024-01-10T08:08:27;8.30;;;4.80;;
5650;SDS011;40241;52.684;9.758;2024-01-10T08:10:53;6.73;;;4.90;;
5650;SDS011;40241;52.684;9.758;2024-01-10T08:13:19;11.70;;;5.30;;
5650;SDS011;40241;52.684;9.758;2024-01-10T08:15:44;9.40;;;5.40;;
5650;SDS011;40241;52.684;9.758;2024-01-10T08:18:09;9.43;;;5.63;;
5650;SDS011;40241;52.684;9.758;2024-01-10T08:20:35;13.60;;;6.03;;
5650;SDS011;40241;52.684;9.758;2024-01-10T08:23:00;9.03;;;5.70;;
5650;SDS011;40241;52.684;9.758;2024-01-10T08:25:25;10.60;;;6.10;;
5650;SDS011;40241;52.684;9.758;2024-01-10T08:27:51;10.30;;;5.90;;
5650;SDS011;40241;52.684;9.758;2024-01-10T08:30:21;13.73;;;6.63;;
5650;SDS011;40241;52.684;9.758;2024-01-10T08:32:47;14.07;;;7.00;;
5650;SDS011;40241;52.684;9.758;2024-01-10T08:35:13;10.73;;;6.57;;
5650;SDS011;40241;52.684;9.758;2024-01-10T08:37:39;17.40;;;7.20;;
5650;SDS011;40241;52.684;9.758;2024-01-10T08:40:07;12.07;;;7.00;;
5650;SDS011;40241;52.684;9.758;2024-01-10T08:42:39;8.17;;;5.73;;
5650;SDS011;40241;52.684;9.758;2024-01-10T08:45:05;11.70;;;6.60;;
5650;SDS011;40241;52.684;9.758;2024-01-10T08:47:30;12.03;;;6.53;;
5650;SDS011;40241;52.684;9.758;2024-01-10T08:49:57;15.17;;;7.03;;
5650;SDS011;40241;52.684;9.758;2024-01-10T08:52:23;12.07;;;6.20;;
5650;SDS011;40241;52.684;9.758;2024-01-10T08:54:49;15.30;;;7.60;;
5650;SDS011;40241;52.684;9.758;2024-01-10T08:57:14;13.70;;;6.00;;
5650;SDS011;40241;52.684;9.758;2024-01-10T08:59:42;11.30;;;6.50;;
5650;SDS011;40241;52.684;9.758;2024-01-10T09:02:07;12.57;;;6.83;;
5650;SDS011;40241;52.684;9.758;2024-01-10T09:04:33;14.63;;;7.50;;
5650;SDS011;40241;52.684;9.758;2024-01-10T09:06:58;10.90;;;5.93;;
5650;SDS011;40241;52.684;9.758;2024-01-10T09:09:23;13.13;;;6.73;;
5650;SDS011;40241;52.684;9.758;2024-01-10T09:11:49;13.33;;;6.30;;
5650;SDS011;40241;52.684;9.758;2024-01-10T09:14:14;13.33;;;6.63;;
5650;SDS011;40241;52.684;9.758;2024-01-10T09:16:39;14.70;;;6.37;;
5650;SDS011;40241;52.684;9.758;2024-01-10T09:19:05;13.03;;;7.17;;
5650;SDS011;40241;52.684;9.758;2024-01-10T09:21:30;11.20;;;6.17;;
5650;SDS011;40241;52.684;9.758;2024-01-10T09:23:56;11.13;;;6.20;;
5650;SDS011;40241;52.684;9.758;2024-01-10T09:26:21;9.60;;;6.47;;
5650;SDS011;40241;52.684;9.758;2024-01-10T09:28:47;13.60;;;6.97;;
5650;SDS011;40241;52.684;9.758;2024-01-10T09:31:13;13.30;;;7.13;;
5650;SDS011;40241;52.684;9.758;2024-01-10T09:33:39;13.13;;;6.50;;
5650;SDS011;40241;52.684;9.758;2024-01-10T09:36:05;16.37;;;7.67;;
5650;SDS011;40241;52.684;9.758;2024-01-10T09:38:34;11.20;;;6.43;;
5650;SDS011;40241;52.684;9.758;2024-01-10T09:41:03;12.33;;;6.10;;
5650;SDS011;40241;52.684;9.758;2024-01-10T09:43:30;12.87;;;7.00;;
5650;SDS011;40241;52.684;9.758;2024-01-10T09:45:55;12.27;;;6.77;;
5650;SDS011;40241;52.684;9.758;2024-01-10T09:48:23;13.87;;;6.93;;
5650;SDS011;40241;52.684;9.758;2024-01-10T09:50:50;10.30;;;6.63;;
5650;SDS011;40241;52.684;9.758;2024-01-10T09:53:21;12.20;;;7.00;;
5650;SDS011;40241;52.684;9.758;2024-01-10T09:55:55;13.57;;;6.67;;
5650;SDS011;40241;52.684;9.758;2024-01-10T09:58:22;13.57;;;6.77;;
5650;SDS011;40241;52.684;9.758;2024-01-10T10:00:50;14.33;;;7.20;;
5650;SDS011;40241;52.684;9.758;2024-01-10T10:03:15;11.37;;;6.20;;
5650;SDS011;40241;52.684;9.758;2024-01-10T10:05:43;10.30;;;6.30;;
5650;SDS011;40241;52.684;9.758;2024-01-10T10:08:10;13.20;;;8.00;;
5650;SDS011;40241;52.684;9.758;2024-01-10T10:10:37;16.20;;;7.23;;
5650;SDS011;40241;52.684;9.758;2024-01-10T10:13:08;11.30;;;7.37;;
5650;SDS011;40241;52.684;9.758;2024-01-10T10:15:35;15.50;;;7.80;;
5650;SDS011;40241;52.684;9.758;2024-01-10T10:18:01;15.17;;;7.57;;
5650;SDS011;40241;52.684;9.758;2024-01-10T10:20:27;10.97;;;6.37;;
5650;SDS011;40241;52.684;9.758;2024-01-10T10:23:03;15.50;;;7.00;;
5650;SDS011;40241;52.684;9.758;2024-01-10T10:27:58;13.13;;;6.90;;
5650;SDS011;40241;52.684;9.758;2024-01-10T10:30:25;11.97;;;6.83;;
5650;SDS011;40241;52.684;9.758;2024-01-10T10:32:51;13.00;;;6.47;;
5650;SDS011;40241;52.684;9.758;2024-01-10T10:35:18;10.70;;;5.57;;
5650;SDS011;40241;52.684;9.758;2024-01-10T10:37:45;10.10;;;5.90;;
5650;SDS011;40241;52.684;9.758;2024-01-10T10:40:10;14.33;;;7.50;;
5650;SDS011;40241;52.684;9.758;2024-01-10T10:42:36;13.93;;;6.77;;
5650;SDS011;40241;52.684;9.758;2024-01-10T10:45:09;12.90;;;6.97;;
5650;SDS011;40241;52.684;9.758;2024-01-10T10:47:37;13.50;;;7.07;;
5650;SDS011;40241;52.684;9.758;2024-01-10T10:50:08;11.57;;;6.63;;
5650;SDS011;40241;52.684;9.758;2024-01-10T10:52:40;13.80;;;7.17;;
5650;SDS011;40241;52.684;9.758;2024-01-10T10:55:09;14.43;;;7.20;;
5650;SDS011;40241;52.684;9.758;2024-01-10T10:57:38;11.70;;;6.00;;
5650;SDS011;40241;52.684;9.758;2024-01-10T11:00:05;14.13;;;6.70;;
5650;SDS011;40241;52.684;9.758;2024-01-10T11:02:32;13.30;;;6.07;;
5650;SDS011;40241;52.684;9.758;2024-01-10T11:04:57;12.00;;;5.87;;
5650;SDS011;40241;52.684;9.758;2024-01-10T11:07:24;12.20;;;5.90;;
5650;SDS011;40241;52.684;9.758;2024-01-10T11:09:49;13.40;;;7.07;;
5650;SDS011;40241;52.684;9.758;2024-01-10T11:12:27;10.63;;;5.17;;
5650;SDS011;40241;52.684;9.758;2024-01-10T11:15:18;15.20;;;5.17;;
5650;SDS011;40241;52.684;9.758;2024-01-10T11:18:03;9.80;;;5.43;;
5650;SDS011;40241;52.684;9.758;2024-01-10T11:20:53;10.70;;;4.80;;
5650;SDS011;40241;52.684;9.758;2024-01-10T11:23:38;7.87;;;4.60;;
5650;SDS011;40241;52.684;9.758;2024-01-10T11:26:06;13.27;;;6.13;;
5650;SDS011;40241;52.684;9.758;2024-01-10T11:28:32;10.60;;;5.33;;
5650;SDS011;40241;52.684;9.758;2024-01-10T11:30:58;10.47;;;5.90;;
5650;SDS011;40241;52.684;9.758;2024-01-10T11:33:25;10.93;;;5.47;;
5650;SDS011;40241;52.684;9.758;2024-01-10T11:38:40;9.60;;;5.23;;
5650;SDS011;40241;52.684;9.758;2024-01-10T11:41:06;9.27;;;4.77;;
5650;SDS011;40241;52.684;9.758;2024-01-10T11:43:33;9.20;;;4.77;;
5650;SDS011;40241;52.684;9.758;2024-01-10T11:45:59;9.80;;;5.53;;
5650;SDS011;40241;52.684;9.758;2024-01-10T11:48:26;10.63;;;6.30;;
5650;SDS011;40241;52.684;9.758;2024-01-10T11:50:52;9.50;;;4.90;;
5650;SDS011;40241;52.684;9.758;2024-01-10T11:53:37;10.53;;;5.70;;
5650;SDS011;40241;52.684;9.758;2024-01-10T11:56:15;8.27;;;4.70;;
5650;SDS011;40241;52.684;9.758;2024-01-10T12:01:26;10.90;;;4.70;;
5650;SDS011;40241;52.684;9.758;2024-01-10T12:03:52;10.87;;;5.10;;
5650;SDS011;40241;52.684;9.758;2024-01-10T12:06:19;12.30;;;5.93;;
5650;SDS011;40241;52.684;9.758;2024-01-10T12:08:46;11.30;;;4.80;;
5650;SDS011;40241;52.684;9.758;2024-01-10T12:11:11;10.07;;;5.10;;
5650;SDS011;40241;52.684;9.758;2024-01-10T12:13:37;8.13;;;4.40;;
5650;SDS011;40241;52.684;9.758;2024-01-10T12:16:02;8.80;;;4.90;;
5650;SDS011;40241;52.684;9.758;2024-01-10T12:18:28;9.63;;;4.70;;
5650;SDS011;40241;52.684;9.758;2024-01-10T12:20:53;7.40;;;4.83;;
5650;SDS011;40241;52.684;9.758;2024-01-10T12:23:19;9.30;;;5.00;;
5650;SDS011;40241;52.684;9.758;2024-01-10T12:25:44;7.37;;;4.27;;
5650;SDS011;40241;52.684;9.758;2024-01-10T12:28:09;8.10;;;4.60;;
5650;SDS011;40241;52.684;9.758;2024-01-10T12:30:35;7.00;;;4.70;;
5650;SDS011;40241;52.684;9.758;2024-01-10T12:33:00;9.47;;;4.73;;
5650;SDS011;40241;52.684;9.758;2024-01-10T12:35:26;9.60;;;4.80;;
5650;SDS011;40241;52.684;9.758;2024-01-10T12:37:55;6.37;;;3.83;;
5650;SDS011;40241;52.684;9.758;2024-01-10T12:40:21;12.90;;;4.63;;
5650;SDS011;40241;52.684;9.758;2024-01-10T12:42:46;7.40;;;4.60;;
5650;SDS011;40241;52.684;9.758;2024-01-10T12:45:21;9.20;;;4.40;;
5650;SDS011;40241;52.684;9.758;2024-01-10T12:47:47;7.53;;;4.37;;
5650;SDS011;40241;52.684;9.758;2024-01-10T12:50:12;8.57;;;4.33;;
5650;SDS011;40241;52.684;9.758;2024-01-10T12:52:38;8.60;;;4.77;;
5650;SDS011;40241;52.684;9.758;2024-01-10T12:55:05;7.40;;;4.10;;
5650;SDS011;40241;52.684;9.758;2024-01-10T12:57:31;12.47;;;4.50;;
5650;SDS011;40241;52.684;9.758;2024-01-10T12:59:56;6.80;;;4.47;;
5650;SDS011;40241;52.684;9.758;2024-01-10T13:02:21;10.33;;;4.60;;
5650;SDS011;40241;52.684;9.758;2024-01-10T13:04:47;10.10;;;4.60;;
5650;SDS011;40241;52.684;9.758;2024-01-10T13:07:13;12.80;;;5.63;;
5650;SDS011;40241;52.684;9.758;2024-01-10T13:09:38;9.23;;;5.17;;
5650;SDS011;40241;52.684;9.758;2024-01-10T13:12:04;8.37;;;4.80;;
5650;SDS011;40241;52.684;9.758;2024-01-10T13:14:30;7.27;;;4.43;;
5650;SDS011;40241;52.684;9.758;2024-01-10T13:16:56;6.93;;;3.77;;
5650;SDS011;40241;52.684;9.758;2024-01-10T13:19:21;7.30;;;3.97;;
5650;SDS011;40241;52.684;9.758;2024-01-10T13:21:47;8.13;;;5.10;;
5650;SDS011;40241;52.684;9.758;2024-01-10T13:24:12;7.27;;;4.17;;
5650;SDS011;40241;52.684;9.758;2024-01-10T13:26:37;8.90;;;5.20;;
5650;SDS011;40241;52.684;9.758;2024-01-10T13:29:03;8.37;;;4.77;;
5650;SDS011;40241;52.684;9.758;2024-01-10T13:31:29;6.93;;;4.27;;
5650;SDS011;40241;52.684;9.758;2024-01-10T13:33:54;6.30;;;3.90;;
5650;SDS011;40241;52.684;9.758;2024-01-10T13:36:20;12.40;;;5.60;;
5650;SDS011;40241;52.684;9.758;2024-01-10T13:38:45;7.17;;;4.60;;
5650;SDS011;40241;52.684;9.758;2024-01-10T13:41:10;6.80;;;4.57;;
5650;SDS011;40241;52.684;9.758;2024-01-10T13:43:36;8.43;;;4.03;;
5650;SDS011;40241;52.684;9.758;2024-01-10T13:46:01;5.47;;;3.77;;
5650;SDS011;40241;52.684;9.758;2024-01-10T13:48:28;8.77;;;4.47;;
5650;SDS011;40241;52.684;9.758;2024-01-10T13:50:53;9.70;;;4.23;;
5650;SDS011;40241;52.684;9.758;2024-01-10T13:53:19;5.63;;;3.80;;
5650;SDS011;40241;52.684;9.758;2024-01-10T13:55:44;6.40;;;4.03;;
5650;SDS011;40241;52.684;9.758;2024-01-10T13:58:11;5.87;;;3.50;;
5650;SDS011;40241;52.684;9.758;2024-01-10T14:00:37;6.57;;;4.03;;
5650;SDS011;40241;52.684;9.758;2024-01-10T14:03:03;6.93;;;3.40;;
5650;SDS011;40241;52.684;9.758;2024-01-10T14:05:29;6.47;;;3.47;;
5650;SDS011;40241;52.684;9.758;2024-01-10T14:07:54;4.40;;;2.93;;
5650;SDS011;40241;52.684;9.758;2024-01-10T14:10:21;5.53;;;3.77;;
5650;SDS011;40241;52.684;9.758;2024-01-10T14:12:46;4.67;;;3.57;;
5650;SDS011;40241;52.684;9.758;2024-01-10T14:15:12;5.40;;;3.23;;
5650;SDS011;40241;52.684;9.758;2024-01-10T14:17:37;6.80;;;3.50;;
5650;SDS011;40241;52.684;9.758;2024-01-10T14:20:03;4.93;;;3.10;;
5650;SDS011;40241;52.684;9.758;2024-01-10T14:22:29;5.27;;;3.00;;
5650;SDS011;40241;52.684;9.758;2024-01-10T14:24:54;4.73;;;3.63;;
5650;SDS011;40241;52.684;9.758;2024-01-10T14:27:20;5.17;;;3.20;;
5650;SDS011;40241;52.684;9.758;2024-01-10T14:29:45;9.60;;;4.30;;
5650;SDS011;40241;52.684;9.758;2024-01-10T14:32:11;5.07;;;3.50;;
5650;SDS011;40241;52.684;9.758;2024-01-10T14:34:39;6.70;;;3.60;;
5650;SDS011;40241;52.684;9.758;2024-01-10T14:37:05;4.07;;;3.23;;
5650;SDS011;40241;52.684;9.758;2024-01-10T14:39:32;5.60;;;3.50;;
5650;SDS011;40241;52.684;9.758;2024-01-10T14:41:57;8.33;;;4.47;;
5650;SDS011;40241;52.684;9.758;2024-01-10T14:44:23;4.73;;;3.10;;
5650;SDS011;40241;52.684;9.758;2024-01-10T14:46:48;8.50;;;3.97;;
5650;SDS011;40241;52.684;9.758;2024-01-10T14:49:13;5.60;;;3.13;;
5650;SDS011;40241;52.684;9.758;2024-01-10T14:51:39;5.83;;;3.43;;
5650;SDS011;40241;52.684;9.758;2024-01-10T14:54:04;5.30;;;3.27;;
5650;SDS011;40241;52.684;9.758;2024-01-10T14:56:29;5.50;;;3.40;;
5650;SDS011;40241;52.684;9.758;2024-01-10T14:58:55;6.10;;;3.70;;
5650;SDS011;40241;52.684;9.758;2024-01-10T15:01:20;6.63;;;3.30;;